sensor_id;sensor_type;location;lat;lon;timestamp;pressure;altitude;pressure_sealevel;temperature;humidity
26839;BME280;40088;51.214;6.786;2023-09-19T00:06:29;100611.59;;;20.60;69.12
26839;BME280;40088;51.214;6.786;2023-09-19T00:16:31;100620.97;;;20.59;69.01
26839;BME280;40088;51.214;6.786;2023-09-19T00:26:32;100615.44;;;20.59;68.60
26839;BME280;40088;51.214;6.786;2023-09-19T00:36:34;100622.88;;;20.59;68.15
26839;BME280;40088;51.214;6.786;2023-09-19T00:46:35;100628.63;;;20.57;67.94
26839;BME280;40088;51.214;6.786;2023-09-19T00:56:35;100641.63;;;20.57;67.90
26839;BME280;40088;51.214;6.786;2023-09-19T01:06:38;100640.78;;;20.56;67.67
26839;BME280;40088;51.214;6.786;2023-09-19T01:37:21;100668.69;;;20.54;66.97
26839;BME280;40088;51.214;6.786;2023-09-19T01:47:34;100684.69;;;20.52;66.70
26839;BME280;40088;51.214;6.786;2023-09-19T01:57:45;100689.34;;;20.52;66.42
26839;BME280;40088;51.214;6.786;2023-09-19T02:07:50;100691.28;;;20.51;66.29
26839;BME280;40088;51.214;6.786;2023-09-19T02:17:50;100701.50;;;20.51;66.37
26839;BME280;40088;51.214;6.786;2023-09-19T02:27:51;100702.56;;;20.50;65.89
26839;BME280;40088;51.214;6.786;2023-09-19T02:37:54;100718.34;;;20.49;65.29
26839;BME280;40088;51.214;6.786;2023-09-19T02:47:55;100723.03;;;20.49;65.44
26839;BME280;40088;51.214;6.786;2023-09-19T02:57:55;100723.25;;;20.47;65.18
26839;BME280;40088;51.214;6.786;2023-09-19T03:07:57;100728.78;;;20.47;64.64
26839;BME280;40088;51.214;6.786;2023-09-19T03:18:00;100746.44;;;20.46;64.93
26839;BME280;40088;51.214;6.786;2023-09-19T03:28:02;100736.25;;;20.47;64.32
26839;BME280;40088;51.214;6.786;2023-09-19T03:38:06;100746.44;;;20.46;64.16
26839;BME280;40088;51.214;6.786;2023-09-19T03:48:10;100737.25;;;20.46;64.42
26839;BME280;40088;51.214;6.786;2023-09-19T03:58:10;100730.88;;;20.45;63.97
26839;BME280;40088;51.214;6.786;2023-09-19T04:08:11;100736.41;;;20.45;64.05
26839;BME280;40088;51.214;6.786;2023-09-19T04:18:12;100732.78;;;20.45;64.36
26839;BME280;40088;51.214;6.786;2023-09-19T04:28:12;100737.50;;;20.44;63.62
26839;BME280;40088;51.214;6.786;2023-09-19T04:38:13;100749.41;;;20.45;64.12
26839;BME280;40088;51.214;6.786;2023-09-19T04:48:15;100743.88;;;20.45;63.79
26839;BME280;40088;51.214;6.786;2023-09-19T04:58:16;100749.41;;;20.45;64.20
26839;BME280;40088;51.214;6.786;2023-09-19T05:08:18;100760.47;;;20.45;64.16
26839;BME280;40088;51.214;6.786;2023-09-19T05:18:18;100777.09;;;20.45;63.66
26839;BME280;40088;51.214;6.786;2023-09-19T05:28:19;100800.31;;;20.44;63.74
26839;BME280;40088;51.214;6.786;2023-09-19T05:38:19;100814.13;;;20.44;63.70
26839;BME280;40088;51.214;6.786;2023-09-19T05:48:20;100836.28;;;20.44;63.21
26839;BME280;40088;51.214;6.786;2023-09-19T05:58:21;100856.72;;;20.43;63.10
26839;BME280;40088;51.214;6.786;2023-09-19T06:08:22;100868.00;;;20.41;63.00
26839;BME280;40088;51.214;6.786;2023-09-19T06:18:22;100862.47;;;20.41;62.64
26839;BME280;40088;51.214;6.786;2023-09-19T06:28:26;100862.47;;;20.41;62.51
26839;BME280;40088;51.214;6.786;2023-09-19T06:38:28;100858.66;;;20.42;63.04
26839;BME280;40088;51.214;6.786;2023-09-19T06:48:28;100852.28;;;20.42;62.92
26839;BME280;40088;51.214;6.786;2023-09-19T06:58:33;100868.88;;;20.42;63.07
26839;BME280;40088;51.214;6.786;2023-09-19T07:08:35;100865.03;;;20.43;63.18
26839;BME280;40088;51.214;6.786;2023-09-19T07:18:36;100877.19;;;20.42;63.50
26839;BME280;40088;51.214;6.786;2023-09-19T07:28:37;100883.56;;;20.42;63.12
26839;BME280;40088;51.214;6.786;2023-09-19T07:38:37;100886.34;;;20.42;63.25
26839;BME280;40088;51.214;6.786;2023-09-19T07:48:38;100891.88;;;20.42;63.17
26839;BME280;40088;51.214;6.786;2023-09-19T07:58:41;100891.03;;;20.42;63.50
26839;BME280;40088;51.214;6.786;2023-09-19T08:08:45;100906.75;;;20.41;63.27
26839;BME280;40088;51.214;6.786;2023-09-19T08:18:49;100904.88;;;20.42;63.01
26839;BME280;40088;51.214;6.786;2023-09-19T08:28:53;100914.22;;;20.41;63.12
26839;BME280;40088;51.214;6.786;2023-09-19T08:38:55;100915.06;;;20.41;63.36
26839;BME280;40088;51.214;6.786;2023-09-19T08:49:04;100924.25;;;20.42;63.09
26839;BME280;40088;51.214;6.786;2023-09-19T08:59:08;100934.44;;;20.41;63.28
26839;BME280;40088;51.214;6.786;2023-09-19T09:09:09;100936.34;;;20.41;63.44
26839;BME280;40088;51.214;6.786;2023-09-19T09:19:11;100915.28;;;20.40;62.91
26839;BME280;40088;51.214;6.786;2023-09-19T09:29:14;100913.34;;;20.40;62.96
26839;BME280;40088;51.214;6.786;2023-09-19T09:39:15;100913.16;;;20.42;62.73
26839;BME280;40088;51.214;6.786;2023-09-19T09:49:31;100912.50;;;20.40;62.81
26839;BME280;40088;51.214;6.786;2023-09-19T09:59:47;100920.81;;;20.40;62.66
26839;BME280;40088;51.214;6.786;2023-09-19T10:09:48;100902.28;;;20.40;62.45
26839;BME280;40088;51.214;6.786;2023-09-19T10:19:54;100902.28;;;20.40;62.64
26839;BME280;40088;51.214;6.786;2023-09-19T10:29:58;100878.22;;;20.41;62.27
26839;BME280;40088;51.214;6.786;2023-09-19T10:39:59;100874.59;;;20.40;62.27
26839;BME280;40088;51.214;6.786;2023-09-19T10:50:01;100877.19;;;20.42;62.33
26839;BME280;40088;51.214;6.786;2023-09-19T11:00:07;100884.59;;;20.41;62.90
26839;BME280;40088;51.214;6.786;2023-09-19T11:10:45;100883.75;;;20.41;62.67
26839;BME280;40088;51.214;6.786;2023-09-19T11:20:47;100877.19;;;20.42;62.75
26839;BME280;40088;51.214;6.786;2023-09-19T11:30:52;100894.84;;;20.41;62.75
26839;BME280;40088;51.214;6.786;2023-09-19T11:51:24;100888.69;;;20.39;61.38
26839;BME280;40088;51.214;6.786;2023-09-19T12:01:33;100872.06;;;20.39;61.49
26839;BME280;40088;51.214;6.786;2023-09-19T12:11:41;100857.16;;;20.40;61.32
26839;BME280;40088;51.214;6.786;2023-09-19T12:21:44;100859.69;;;20.41;61.65
26839;BME280;40088;51.214;6.786;2023-09-19T12:31:56;100835.84;;;20.40;61.45
26839;BME280;40088;51.214;6.786;2023-09-19T12:41:58;100827.38;;;20.42;62.29
26839;BME280;40088;51.214;6.786;2023-09-19T12:51:59;100813.28;;;20.43;62.34
26839;BME280;40088;51.214;6.786;2023-09-19T13:02:04;100804.16;;;20.43;62.66
26839;BME280;40088;51.214;6.786;2023-09-19T13:12:36;100807.75;;;20.43;62.44
26839;BME280;40088;51.214;6.786;2023-09-19T13:22:44;100805.00;;;20.43;62.73
26839;BME280;40088;51.214;6.786;2023-09-19T13:33:05;100813.91;;;20.45;62.92
26839;BME280;40088;51.214;6.786;2023-09-19T13:43:07;100814.13;;;20.44;63.00
26839;BME280;40088;51.214;6.786;2023-09-19T13:53:08;100823.28;;;20.44;62.88
26839;BME280;40088;51.214;6.786;2023-09-19T14:03:09;100841.59;;;20.45;62.90
26839;BME280;40088;51.214;6.786;2023-09-19T14:13:11;100827.13;;;20.43;62.95
26839;BME280;40088;51.214;6.786;2023-09-19T14:23:14;100816.91;;;20.44;62.48
26839;BME280;40088;51.214;6.786;2023-09-19T14:33:15;100821.38;;;20.45;62.90
26839;BME280;40088;51.214;6.786;2023-09-19T14:43:16;100819.69;;;20.44;62.48
26839;BME280;40088;51.214;6.786;2023-09-19T14:53:16;100826.06;;;20.44;62.12
26839;BME280;40088;51.214;6.786;2023-09-19T15:03:17;100835.44;;;20.43;61.43
26839;BME280;40088;51.214;6.786;2023-09-19T15:13:18;100814.13;;;20.44;61.88
26839;BME280;40088;51.214;6.786;2023-09-19T15:23:19;100805.84;;;20.44;62.21
26839;BME280;40088;51.214;6.786;2023-09-19T15:33:20;100812.00;;;20.46;62.68
26839;BME280;40088;51.214;6.786;2023-09-19T15:43:20;100802.00;;;20.45;62.69
26839;BME280;40088;51.214;6.786;2023-09-19T15:53:22;100784.31;;;20.46;62.80
26839;BME280;40088;51.214;6.786;2023-09-19T16:03:22;100776.88;;;20.46;62.82
26839;BME280;40088;51.214;6.786;2023-09-19T16:13:25;100787.09;;;20.46;63.00
26839;BME280;40088;51.214;6.786;2023-09-19T16:23:27;100775.16;;;20.45;62.82
26839;BME280;40088;51.214;6.786;2023-09-19T16:33:36;100794.38;;;20.47;63.04
26839;BME280;40088;51.214;6.786;2023-09-19T16:43:37;100797.16;;;20.47;63.51
26839;BME280;40088;51.214;6.786;2023-09-19T16:53:39;100787.75;;;20.48;63.65
26839;BME280;40088;51.214;6.786;2023-09-19T17:03:43;100783.31;;;20.47;63.31
26839;BME280;40088;51.214;6.786;2023-09-19T17:13:47;100792.47;;;20.47;63.79
26839;BME280;40088;51.214;6.786;2023-09-19T17:23:50;100789.69;;;20.47;63.78
26839;BME280;40088;51.214;6.786;2023-09-19T17:33:51;100784.16;;;20.47;63.13
26839;BME280;40088;51.214;6.786;2023-09-19T17:43:54;100788.84;;;20.47;63.06
26839;BME280;40088;51.214;6.786;2023-09-19T17:53:56;100787.97;;;20.46;63.06
26839;BME280;40088;51.214;6.786;2023-09-19T18:04:01;100799.03;;;20.46;63.05
26839;BME280;40088;51.214;6.786;2023-09-19T18:14:02;100805.59;;;20.45;63.24
26839;BME280;40088;51.214;6.786;2023-09-19T18:24:03;100810.97;;;20.47;63.15
26839;BME280;40088;51.214;6.786;2023-09-19T18:34:07;100814.59;;;20.47;63.10
26839;BME280;40088;51.214;6.786;2023-09-19T18:44:07;100819.28;;;20.47;63.45
26839;BME280;40088;51.214;6.786;2023-09-19T18:54:08;100812.00;;;20.46;63.17
26839;BME280;40088;51.214;6.786;2023-09-19T19:04:09;100819.28;;;20.47;62.92
26839;BME280;40088;51.214;6.786;2023-09-19T19:14:11;100803.69;;;20.46;63.16
26839;BME280;40088;51.214;6.786;2023-09-19T19:24:12;100811.84;;;20.47;63.22
26839;BME280;40088;51.214;6.786;2023-09-19T19:34:14;100792.63;;;20.46;63.37
26839;BME280;40088;51.214;6.786;2023-09-19T19:44:15;100802.69;;;20.47;63.63
26839;BME280;40088;51.214;6.786;2023-09-19T19:54:15;100810.97;;;20.47;63.37
26839;BME280;40088;51.214;6.786;2023-09-19T20:04:16;100815.63;;;20.46;63.54
26839;BME280;40088;51.214;6.786;2023-09-19T20:14:16;100825.84;;;20.46;63.35
26839;BME280;40088;51.214;6.786;2023-09-19T20:24:17;100818.41;;;20.46;63.47
26839;BME280;40088;51.214;6.786;2023-09-19T20:34:23;100823.06;;;20.46;63.25
26839;BME280;40088;51.214;6.786;2023-09-19T20:44:24;100815.63;;;20.46;63.28
26839;BME280;40088;51.214;6.786;2023-09-19T20:54:26;100809.22;;;20.46;63.21
26839;BME280;40088;51.214;6.786;2023-09-19T21:04:27;100803.69;;;20.46;63.27
26839;BME280;40088;51.214;6.786;2023-09-19T21:14:30;100807.34;;;20.46;63.43
26839;BME280;40088;51.214;6.786;2023-09-19T21:24:31;100803.69;;;20.46;63.38
26839;BME280;40088;51.214;6.786;2023-09-19T21:34:32;100806.47;;;20.46;63.55
26839;BME280;40088;51.214;6.786;2023-09-19T21:44:33;100794.53;;;20.45;63.73
26839;BME280;40088;51.214;6.786;2023-09-19T21:54:34;100793.69;;;20.45;63.62
26839;BME280;40088;51.214;6.786;2023-09-19T22:04:34;100781.53;;;20.46;63.40
26839;BME280;40088;51.214;6.786;2023-09-19T22:14:35;100794.53;;;20.45;63.88
26839;BME280;40088;51.214;6.786;2023-09-19T22:24:36;100793.69;;;20.45;63.43
26839;BME280;40088;51.214;6.786;2023-09-19T22:34:36;100784.53;;;20.44;63.59
26839;BME280;40088;51.214;6.786;2023-09-19T22:44:41;100774.31;;;20.45;63.95
26839;BME280;40088;51.214;6.786;2023-09-19T22:54:41;100778.78;;;20.46;63.82
26839;BME280;40088;51.214;6.786;2023-09-19T23:04:43;100777.94;;;20.45;63.55
26839;BME280;40088;51.214;6.786;2023-09-19T23:14:44;100772.41;;;20.45;64.00
26839;BME280;40088;51.214;6.786;2023-09-19T23:24:45;100781.78;;;20.44;63.63
26839;BME280;40088;51.214;6.786;2023-09-19T23:34:49;100779.00;;;20.44;63.92
26839;BME280;40088;51.214;6.786;2023-09-19T23:44:50;100780.69;;;20.45;63.89
26839;BME280;40088;51.214;6.786;2023-09-19T23:54:51;100775.16;;;20.45;63.91
